createdAt,value
2024-03-28T00:01:18.090Z,62.83
2024-03-28T00:04:55.736Z,63.05
2024-03-28T00:08:33.847Z,63.25
2024-03-28T00:12:11.254Z,63.37
2024-03-28T00:15:57.902Z,63.45
2024-03-28T00:19:39.189Z,63.39
2024-03-28T00:23:14.840Z,63.60
2024-03-28T00:26:56.073Z,63.66
2024-03-28T00:30:31.960Z,63.75
2024-03-28T00:34:12.233Z,63.84
2024-03-28T00:37:53.574Z,64.00
2024-03-28T00:41:31.164Z,64.08
2024-03-28T00:45:09.384Z,64.20
2024-03-28T00:48:44.550Z,65.03
2024-03-28T00:52:26.170Z,65.34
2024-03-28T00:56:01.902Z,65.64
2024-03-28T00:59:43.479Z,65.56
2024-03-28T01:03:18.943Z,65.73
2024-03-28T01:06:58.171Z,65.85
2024-03-28T01:10:39.709Z,65.79
2024-03-28T01:14:17.287Z,65.96
2024-03-28T01:17:54.929Z,65.89
2024-03-28T01:21:32.634Z,65.91
2024-03-28T01:25:10.772Z,65.91
2024-03-28T01:28:48.230Z,65.93
2024-03-28T01:32:23.764Z,65.92
2024-03-28T01:36:06.977Z,65.92
2024-03-28T01:39:41.310Z,65.88
2024-03-28T01:43:22.670Z,65.75
2024-03-28T01:47:17.416Z,65.62
2024-03-28T01:51:00.759Z,65.43
2024-03-28T01:54:40.534Z,65.39
2024-03-28T01:58:18.970Z,65.31
2024-03-28T02:01:55.135Z,65.34
2024-03-28T02:05:31.531Z,65.34
2024-03-28T02:09:10.385Z,65.44
2024-03-28T02:12:52.027Z,65.44
2024-03-28T02:16:36.203Z,65.55
2024-03-28T02:20:08.922Z,65.50
2024-03-28T02:23:42.984Z,65.69
2024-03-28T02:27:24.196Z,65.83
2024-03-28T02:31:03.001Z,65.98
2024-03-28T02:34:58.705Z,66.10
2024-03-28T02:38:17.601Z,66.13
2024-03-28T02:41:55.245Z,66.03
2024-03-28T02:45:32.838Z,66.23
2024-03-28T02:49:14.682Z,66.41
2024-03-28T02:52:48.221Z,66.34
2024-03-28T02:56:26.124Z,66.45
2024-03-28T03:00:04.567Z,66.55
2024-03-28T03:03:39.509Z,66.55
2024-03-28T03:07:20.832Z,66.74
2024-03-28T03:10:56.524Z,66.68
2024-03-28T03:14:37.729Z,66.66
2024-03-28T03:18:15.674Z,66.26
2024-03-28T03:21:53.576Z,66.31
2024-03-28T03:25:42.736Z,66.38
2024-03-28T03:29:27.512Z,66.36
2024-03-28T03:33:24.421Z,66.40
2024-03-28T03:36:24.048Z,66.50
2024-03-28T03:40:02.237Z,66.77
2024-03-28T03:43:38.132Z,66.71
2024-03-28T03:47:17.389Z,66.91
2024-03-28T03:50:58.091Z,66.94
2024-03-28T03:54:40.558Z,67.03
2024-03-28T03:58:15.165Z,66.97
2024-03-28T04:01:54.381Z,67.01
2024-03-28T04:05:35.138Z,67.09
2024-03-28T04:09:14.742Z,67.05
2024-03-28T04:12:57.887Z,67.23
2024-03-28T04:16:34.385Z,67.35
2024-03-28T04:20:12.416Z,67.33
2024-03-28T04:23:47.740Z,67.49
2024-03-28T04:27:29.373Z,67.41
2024-03-28T04:31:04.911Z,67.60
2024-03-28T04:34:44.252Z,68.05
2024-03-28T04:38:23.728Z,68.07
2024-03-28T04:42:05.157Z,68.31
2024-03-28T04:45:40.779Z,68.33
2024-03-28T04:49:22.335Z,68.42
2024-03-28T04:52:57.977Z,68.49
2024-03-28T04:56:41.850Z,68.50
2024-03-28T05:04:31.694Z,68.70
2024-03-28T05:08:13.885Z,68.84
2024-03-28T05:11:50.322Z,68.83
2024-03-28T05:15:29.803Z,68.83
2024-03-28T05:19:09.075Z,68.94
2024-03-28T05:22:50.589Z,69.06
2024-03-28T05:26:27.988Z,69.01
2024-03-28T05:30:06.429Z,69.13
2024-03-28T05:33:41.736Z,69.14
2024-03-28T05:37:23.744Z,69.40
2024-03-28T05:40:58.964Z,69.38
2024-03-28T05:44:42.997Z,69.51
2024-03-28T05:48:16.587Z,69.54
2024-03-28T05:52:02.236Z,69.67
2024-03-28T05:55:36.595Z,69.80
2024-03-28T05:59:11.960Z,69.69
2024-03-28T06:03:07.178Z,70.19
2024-03-28T09:02:50.826Z,60.36
2024-03-28T09:05:41.060Z,59.80
2024-03-28T09:09:19.490Z,59.72
2024-03-28T09:12:56.596Z,59.70
2024-03-28T09:16:35.699Z,59.53
2024-03-28T09:20:14.662Z,59.32
2024-03-28T09:23:49.636Z,59.28
2024-03-28T09:27:30.814Z,59.22
2024-03-28T09:31:07.259Z,59.38
2024-03-28T09:34:42.661Z,58.96
2024-03-28T09:38:20.626Z,58.88
2024-03-28T09:42:02.614Z,59.05
2024-03-28T09:45:36.533Z,58.74
2024-03-28T09:49:14.116Z,58.79
2024-03-28T09:52:56.228Z,58.72
2024-03-28T09:56:38.876Z,58.99
2024-03-28T10:00:14.107Z,58.52
2024-03-28T10:04:01.305Z,57.95
2024-03-28T10:07:33.887Z,57.75
2024-03-28T10:11:12.081Z,57.51
2024-03-28T10:14:56.046Z,57.13
2024-03-28T10:18:26.495Z,57.47
2024-03-28T10:22:23.146Z,57.21
2024-03-28T10:25:42.009Z,57.05
2024-03-28T10:29:20.197Z,57.32
2024-03-28T10:33:05.281Z,56.68
2024-03-28T10:36:49.359Z,56.45
2024-03-28T10:40:33.124Z,55.92
2024-03-28T10:44:10.967Z,56.25
2024-03-28T10:47:44.911Z,56.03
2024-03-28T10:51:24.334Z,55.90
2024-03-28T10:55:45.923Z,55.77
2024-03-28T10:58:44.792Z,55.77
2024-03-28T11:02:23.279Z,55.76
2024-03-28T11:05:59.947Z,55.72
2024-03-28T11:09:35.372Z,55.92
2024-03-28T11:13:15.089Z,55.32
2024-03-28T11:17:06.724Z,54.83
2024-03-28T11:20:32.572Z,55.10
2024-03-28T11:24:20.679Z,54.79
2024-03-28T11:28:03.461Z,54.29
2024-03-28T11:31:45.229Z,54.09
2024-03-28T11:35:11.358Z,53.81
2024-03-28T11:38:45.002Z,53.16
2024-03-28T13:15:34.734Z,49.90
2024-03-28T13:18:24.114Z,48.85
2024-03-28T13:22:02.228Z,48.24
2024-03-28T13:25:51.536Z,48.28
2024-03-28T13:29:16.753Z,48.24
2024-03-28T13:32:56.049Z,48.38
2024-03-28T13:36:39.104Z,48.00
2024-03-28T13:40:15.210Z,47.53
2024-03-28T13:43:51.087Z,46.96
2024-03-28T13:47:32.949Z,46.95
2024-03-28T13:51:10.873Z,46.63
2024-03-28T13:54:48.242Z,46.72
2024-03-28T13:58:26.179Z,46.34
2024-03-28T14:02:02.696Z,47.48
2024-03-28T14:05:44.692Z,46.93
2024-03-28T14:09:21.724Z,46.63
2024-03-28T14:12:59.831Z,46.59
2024-03-28T14:16:35.714Z,46.35
2024-03-28T14:20:19.329Z,46.40
2024-03-28T14:29:14.072Z,46.13
2024-03-28T14:32:55.465Z,46.23
2024-03-28T14:36:31.419Z,46.91
2024-03-28T14:40:14.058Z,47.23
2024-03-28T14:43:50.878Z,45.79
2024-03-28T14:47:28.376Z,45.81
2024-03-28T14:51:08.844Z,46.11
2024-03-28T14:54:49.190Z,45.36
2024-03-28T14:58:24.059Z,45.48
2024-03-28T15:02:12.243Z,45.83
2024-03-28T15:05:57.468Z,45.37
2024-03-28T15:09:27.525Z,45.81
2024-03-28T15:13:05.323Z,45.38
2024-03-28T15:16:42.934Z,45.91
2024-03-28T15:20:33.844Z,44.63
2024-03-28T15:23:58.265Z,44.18
2024-03-28T15:27:36.168Z,43.88
2024-03-28T15:31:11.801Z,44.02
2024-03-28T15:34:55.284Z,43.92
2024-03-28T15:38:30.858Z,43.92
2024-03-28T15:42:09.003Z,43.80
2024-03-28T15:45:47.195Z,43.64
2024-03-28T15:49:25.894Z,43.62
2024-03-28T15:53:01.871Z,43.72
2024-03-28T15:56:41.050Z,43.47
2024-03-28T16:00:15.495Z,43.52
2024-03-28T16:03:57.827Z,43.55
2024-03-28T16:07:32.689Z,43.50
2024-03-28T16:11:15.360Z,43.43
2024-03-28T16:14:54.885Z,43.43
2024-03-28T16:18:32.088Z,43.35
2024-03-28T16:22:07.713Z,43.46
2024-03-28T16:25:43.364Z,43.56
2024-03-28T16:29:25.285Z,43.74
2024-03-28T16:33:02.587Z,43.91
2024-03-28T16:36:40.501Z,44.02
2024-03-28T17:04:34.595Z,44.87
2024-03-28T17:07:22.234Z,45.31
2024-03-28T17:11:01.164Z,45.25
2024-03-28T17:14:37.726Z,45.37
2024-03-28T17:18:19.433Z,45.51
2024-03-28T17:21:57.270Z,45.65
2024-03-28T17:25:37.729Z,45.70
2024-03-28T17:29:07.193Z,45.82
2024-03-28T17:32:46.763Z,45.86
2024-03-28T17:36:28.279Z,45.81
2024-03-28T17:50:33.404Z,45.97
2024-03-28T17:53:22.160Z,45.86
2024-03-28T17:57:00.697Z,46.01
2024-03-28T18:00:44.347Z,46.10
2024-03-28T18:04:16.897Z,46.16
2024-03-28T18:07:56.557Z,46.19
2024-03-28T18:11:31.393Z,46.28
2024-03-28T18:15:08.611Z,46.31
2024-03-28T18:18:44.553Z,46.23
2024-03-28T18:22:32.885Z,46.16
2024-03-28T18:26:07.050Z,46.14
2024-03-28T18:29:41.454Z,46.20
2024-03-28T18:33:23.634Z,46.26
2024-03-28T18:36:56.966Z,46.10
2024-03-28T18:40:34.784Z,46.53
2024-03-28T18:44:12.125Z,46.40
2024-03-28T18:47:47.960Z,46.47
2024-03-28T18:51:29.683Z,46.41
2024-03-28T18:55:08.132Z,46.67
2024-03-28T18:58:45.024Z,46.65
2024-03-28T19:02:22.594Z,46.62
2024-03-28T19:05:58.841Z,46.71
2024-03-28T19:09:38.605Z,46.80
2024-03-28T19:13:18.284Z,46.90
2024-03-28T19:17:00.078Z,47.08
2024-03-28T19:20:46.407Z,47.26
2024-03-28T19:24:13.384Z,47.37
2024-03-28T19:27:52.719Z,47.36
2024-03-28T19:31:36.575Z,47.44
2024-03-28T19:35:10.068Z,47.51
2024-03-28T19:38:52.395Z,47.64
2024-03-28T19:42:31.524Z,47.73
2024-03-28T19:46:14.352Z,47.82
2024-03-28T19:49:50.471Z,47.96
2024-03-28T19:53:33.254Z,48.02
2024-03-28T19:57:10.374Z,48.18
2024-03-28T20:00:48.183Z,48.24
2024-03-28T20:04:25.878Z,48.27
2024-03-28T20:08:06.955Z,48.52
2024-03-28T20:11:41.096Z,48.60
2024-03-28T20:15:17.003Z,48.66
2024-03-28T20:18:58.547Z,48.72
2024-03-28T20:22:36.317Z,49.01
2024-03-28T20:26:13.788Z,49.05
2024-03-28T20:29:52.086Z,49.14
2024-03-28T20:33:29.396Z,49.43
2024-03-28T20:37:11.778Z,49.37
2024-03-28T20:40:53.758Z,49.56
2024-03-28T20:44:36.456Z,49.79
2024-03-28T20:48:13.120Z,49.82
2024-03-28T20:51:48.846Z,49.95
2024-03-28T20:55:30.708Z,50.02
2024-03-28T20:59:06.302Z,49.99
2024-03-28T21:03:09.101Z,50.22
2024-03-28T21:06:44.423Z,50.10
2024-03-28T21:10:22.191Z,50.08
2024-03-28T21:13:41.810Z,49.80
2024-03-28T21:17:19.352Z,49.92
2024-03-28T21:20:57.569Z,49.92
2024-03-28T21:24:34.452Z,49.83
2024-03-28T21:28:09.886Z,49.70
2024-03-28T21:31:49.573Z,49.98
2024-03-28T21:35:29.299Z,49.78
2024-03-28T21:39:11.259Z,49.79
2024-03-28T21:42:52.950Z,49.72
2024-03-28T21:46:30.684Z,49.83
2024-03-28T21:50:08.819Z,49.64
2024-03-28T21:53:51.051Z,49.64
2024-03-28T21:57:27.669Z,49.74
2024-03-28T22:01:09.338Z,49.60
2024-03-28T22:04:49.386Z,49.75
2024-03-28T22:08:35.874Z,49.72
2024-03-28T22:12:11.868Z,49.90
2024-03-28T22:15:46.482Z,49.88
2024-03-28T22:19:26.855Z,49.83
2024-03-28T22:23:08.219Z,49.93
2024-03-28T22:26:44.839Z,50.06
2024-03-28T22:30:26.238Z,50.00
2024-03-28T22:34:04.016Z,50.08
2024-03-28T22:37:43.837Z,50.18
2024-03-28T22:41:19.470Z,50.33
2024-03-28T22:44:57.456Z,50.47
2024-03-28T22:48:34.985Z,50.88
2024-03-28T22:52:13.594Z,50.92
2024-03-28T22:55:57.785Z,50.96
2024-03-28T22:59:28.328Z,51.08
2024-03-28T23:03:06.000Z,51.37
2024-03-28T23:06:47.329Z,51.55
2024-03-28T23:10:21.268Z,51.71
2024-03-28T23:13:59.022Z,51.70
2024-03-28T23:17:36.636Z,51.83
2024-03-28T23:21:12.532Z,51.91
2024-03-28T23:24:54.111Z,52.06
2024-03-28T23:28:29.770Z,52.16
2024-03-28T23:32:12.163Z,52.22
2024-03-28T23:35:49.045Z,52.19
2024-03-28T23:39:27.384Z,52.21
2024-03-28T23:43:02.477Z,52.25
2024-03-28T23:46:45.287Z,52.38
2024-03-28T23:50:19.771Z,52.47
2024-03-28T23:53:59.259Z,52.64
2024-03-28T23:57:38.582Z,52.75
